sensor_id;sensor_type;location;lat;lon;timestamp;P1;durP1;ratioP1;P2;durP2;ratioP2
31282;SDS011;17915;52.540;13.604;2023-09-12T00:01:47;29.83;;;20.83;;
31282;SDS011;17915;52.540;13.604;2023-09-12T00:04:12;25.50;;;19.00;;
31282;SDS011;17915;52.540;13.604;2023-09-12T00:06:38;36.30;;;22.17;;
31282;SDS011;17915;52.540;13.604;2023-09-12T00:09:03;33.83;;;19.67;;
31282;SDS011;17915;52.540;13.604;2023-09-12T00:11:31;29.77;;;20.42;;
31282;SDS011;17915;52.540;13.604;2023-09-12T00:13:57;24.90;;;20.27;;
31282;SDS011;17915;52.540;13.604;2023-09-12T00:16:24;27.77;;;19.65;;
31282;SDS011;17915;52.540;13.604;2023-09-12T00:18:49;29.50;;;20.57;;
31282;SDS011;17915;52.540;13.604;2023-09-12T00:21:15;26.77;;;20.13;;
31282;SDS011;17915;52.540;13.604;2023-09-12T00:23:40;34.07;;;19.10;;
31282;SDS011;17915;52.540;13.604;2023-09-12T00:26:05;24.97;;;17.97;;
31282;SDS011;17915;52.540;13.604;2023-09-12T00:28:31;29.37;;;20.37;;
31282;SDS011;17915;52.540;13.604;2023-09-12T00:30:58;31.88;;;19.60;;
31282;SDS011;17915;52.540;13.604;2023-09-12T00:33:23;24.07;;;19.17;;
31282;SDS011;17915;52.540;13.604;2023-09-12T00:35:49;27.37;;;19.33;;
31282;SDS011;17915;52.540;13.604;2023-09-12T00:38:14;28.63;;;19.73;;
31282;SDS011;17915;52.540;13.604;2023-09-12T00:40:40;39.20;;;21.33;;
31282;SDS011;17915;52.540;13.604;2023-09-12T00:43:05;26.47;;;19.67;;
31282;SDS011;17915;52.540;13.604;2023-09-12T00:45:30;34.97;;;19.87;;
31282;SDS011;17915;52.540;13.604;2023-09-12T00:47:57;25.43;;;19.50;;
31282;SDS011;17915;52.540;13.604;2023-09-12T00:50:23;26.42;;;20.50;;
31282;SDS011;17915;52.540;13.604;2023-09-12T00:52:50;24.17;;;19.23;;
31282;SDS011;17915;52.540;13.604;2023-09-12T00:55:15;37.70;;;21.77;;
31282;SDS011;17915;52.540;13.604;2023-09-12T00:57:41;30.38;;;22.27;;
31282;SDS011;17915;52.540;13.604;2023-09-12T01:00:07;26.15;;;21.08;;
31282;SDS011;17915;52.540;13.604;2023-09-12T01:02:41;28.55;;;20.55;;
31282;SDS011;17915;52.540;13.604;2023-09-12T01:05:09;27.70;;;20.38;;
31282;SDS011;17915;52.540;13.604;2023-09-12T01:07:38;30.42;;;22.17;;
31282;SDS011;17915;52.540;13.604;2023-09-12T01:10:04;25.42;;;20.55;;
31282;SDS011;17915;52.540;13.604;2023-09-12T01:12:31;26.63;;;20.17;;
31282;SDS011;17915;52.540;13.604;2023-09-12T01:14:56;27.13;;;20.27;;
31282;SDS011;17915;52.540;13.604;2023-09-12T01:17:22;25.00;;;20.83;;
31282;SDS011;17915;52.540;13.604;2023-09-12T01:19:48;24.67;;;21.13;;
31282;SDS011;17915;52.540;13.604;2023-09-12T01:29:59;23.25;;;19.75;;
31282;SDS011;17915;52.540;13.604;2023-09-12T01:32:26;33.78;;;20.13;;
31282;SDS011;17915;52.540;13.604;2023-09-12T01:34:51;24.93;;;20.40;;
31282;SDS011;17915;52.540;13.604;2023-09-12T01:37:17;22.63;;;19.10;;
31282;SDS011;17915;52.540;13.604;2023-09-12T01:39:42;31.10;;;19.20;;
31282;SDS011;17915;52.540;13.604;2023-09-12T01:42:17;32.37;;;19.73;;
31282;SDS011;17915;52.540;13.604;2023-09-12T01:44:44;22.05;;;19.60;;
31282;SDS011;17915;52.540;13.604;2023-09-12T01:47:09;31.13;;;21.17;;
31282;SDS011;17915;52.540;13.604;2023-09-12T01:49:36;30.95;;;20.45;;
31282;SDS011;17915;52.540;13.604;2023-09-12T01:52:02;25.40;;;19.73;;
31282;SDS011;17915;52.540;13.604;2023-09-12T01:54:28;23.10;;;19.05;;
31282;SDS011;17915;52.540;13.604;2023-09-12T01:56:54;21.53;;;18.97;;
31282;SDS011;17915;52.540;13.604;2023-09-12T01:59:22;38.33;;;20.00;;
31282;SDS011;17915;52.540;13.604;2023-09-12T02:01:48;31.33;;;20.55;;
31282;SDS011;17915;52.540;13.604;2023-09-12T02:04:13;22.43;;;19.67;;
31282;SDS011;17915;52.540;13.604;2023-09-12T02:06:39;26.83;;;18.70;;
31282;SDS011;17915;52.540;13.604;2023-09-12T02:09:04;29.00;;;19.20;;
31282;SDS011;17915;52.540;13.604;2023-09-12T02:11:30;26.67;;;19.93;;
31282;SDS011;17915;52.540;13.604;2023-09-12T02:13:55;37.77;;;22.27;;
31282;SDS011;17915;52.540;13.604;2023-09-12T02:16:20;29.00;;;21.27;;
31282;SDS011;17915;52.540;13.604;2023-09-12T02:18:46;30.43;;;20.13;;
31282;SDS011;17915;52.540;13.604;2023-09-12T02:21:11;32.50;;;20.40;;
31282;SDS011;17915;52.540;13.604;2023-09-12T02:23:37;26.27;;;21.10;;
31282;SDS011;17915;52.540;13.604;2023-09-12T02:26:02;30.00;;;20.43;;
31282;SDS011;17915;52.540;13.604;2023-09-12T02:28:27;26.03;;;19.87;;
31282;SDS011;17915;52.540;13.604;2023-09-12T02:30:53;22.87;;;19.17;;
31282;SDS011;17915;52.540;13.604;2023-09-12T02:33:18;31.53;;;20.40;;
31282;SDS011;17915;52.540;13.604;2023-09-12T02:35:44;29.77;;;20.17;;
31282;SDS011;17915;52.540;13.604;2023-09-12T02:38:09;28.27;;;21.40;;
31282;SDS011;17915;52.540;13.604;2023-09-12T02:40:34;29.57;;;21.97;;
31282;SDS011;17915;52.540;13.604;2023-09-12T02:43:00;22.60;;;19.93;;
31282;SDS011;17915;52.540;13.604;2023-09-12T02:45:25;25.77;;;19.30;;
31282;SDS011;17915;52.540;13.604;2023-09-12T02:47:51;26.60;;;20.67;;
31282;SDS011;17915;52.540;13.604;2023-09-12T02:50:16;25.77;;;22.43;;
31282;SDS011;17915;52.540;13.604;2023-09-12T02:52:41;32.60;;;22.77;;
31282;SDS011;17915;52.540;13.604;2023-09-12T02:55:07;27.27;;;20.77;;
31282;SDS011;17915;52.540;13.604;2023-09-12T02:57:32;25.07;;;21.67;;
31282;SDS011;17915;52.540;13.604;2023-09-12T02:59:58;26.80;;;21.83;;
31282;SDS011;17915;52.540;13.604;2023-09-12T03:02:23;31.60;;;22.47;;
31282;SDS011;17915;52.540;13.604;2023-09-12T08:01:27;35.38;;;16.42;;
31282;SDS011;17915;52.540;13.604;2023-09-12T08:03:53;23.50;;;15.55;;
31282;SDS011;17915;52.540;13.604;2023-09-12T08:06:19;19.83;;;14.23;;
31282;SDS011;17915;52.540;13.604;2023-09-12T08:08:44;25.80;;;14.95;;
31282;SDS011;17915;52.540;13.604;2023-09-12T08:11:10;33.63;;;14.67;;
31282;SDS011;17915;52.540;13.604;2023-09-12T08:13:35;22.70;;;15.13;;
31282;SDS011;17915;52.540;13.604;2023-09-12T08:16:01;35.93;;;14.37;;
31282;SDS011;17915;52.540;13.604;2023-09-12T08:18:28;17.48;;;14.38;;
31282;SDS011;17915;52.540;13.604;2023-09-12T08:20:54;20.98;;;13.73;;
31282;SDS011;17915;52.540;13.604;2023-09-12T08:23:20;23.40;;;14.60;;
31282;SDS011;17915;52.540;13.604;2023-09-12T08:25:45;29.10;;;12.97;;
31282;SDS011;17915;52.540;13.604;2023-09-12T08:28:10;21.63;;;12.40;;
31282;SDS011;17915;52.540;13.604;2023-09-12T08:30:36;20.10;;;14.00;;
31282;SDS011;17915;52.540;13.604;2023-09-12T08:33:01;31.40;;;12.77;;
31282;SDS011;17915;52.540;13.604;2023-09-12T08:35:28;19.67;;;12.70;;
31282;SDS011;17915;52.540;13.604;2023-09-12T08:37:54;26.02;;;13.95;;
31282;SDS011;17915;52.540;13.604;2023-09-12T08:40:20;27.20;;;13.75;;
31282;SDS011;17915;52.540;13.604;2023-09-12T08:42:45;29.73;;;13.77;;
31282;SDS011;17915;52.540;13.604;2023-09-12T08:45:15;25.27;;;13.07;;
31282;SDS011;17915;52.540;13.604;2023-09-12T08:47:46;25.05;;;13.57;;
31282;SDS011;17915;52.540;13.604;2023-09-12T08:50:15;29.30;;;14.45;;
31282;SDS011;17915;52.540;13.604;2023-09-12T08:52:44;22.77;;;13.35;;
31282;SDS011;17915;52.540;13.604;2023-09-12T08:55:11;23.85;;;13.38;;
31282;SDS011;17915;52.540;13.604;2023-09-12T08:57:40;16.38;;;11.98;;
31282;SDS011;17915;52.540;13.604;2023-09-12T09:00:08;31.98;;;14.05;;
31282;SDS011;17915;52.540;13.604;2023-09-12T09:02:38;27.27;;;12.57;;
31282;SDS011;17915;52.540;13.604;2023-09-12T09:05:07;21.67;;;11.98;;
31282;SDS011;17915;52.540;13.604;2023-09-12T09:07:37;19.88;;;12.07;;
31282;SDS011;17915;52.540;13.604;2023-09-12T09:10:04;31.73;;;12.43;;
31282;SDS011;17915;52.540;13.604;2023-09-12T09:12:35;18.52;;;11.32;;
31282;SDS011;17915;52.540;13.604;2023-09-12T09:17:53;21.55;;;12.90;;
31282;SDS011;17915;52.540;13.604;2023-09-12T09:22:59;22.52;;;12.00;;
31282;SDS011;17915;52.540;13.604;2023-09-12T09:25:27;30.05;;;12.85;;
31282;SDS011;17915;52.540;13.604;2023-09-12T09:27:53;30.80;;;12.07;;
31282;SDS011;17915;52.540;13.604;2023-09-12T09:30:22;27.63;;;11.98;;
31282;SDS011;17915;52.540;13.604;2023-09-12T09:33:05;32.85;;;11.75;;
31282;SDS011;17915;52.540;13.604;2023-09-12T09:35:30;20.25;;;11.55;;
31282;SDS011;17915;52.540;13.604;2023-09-12T09:37:56;22.77;;;12.35;;
31282;SDS011;17915;52.540;13.604;2023-09-12T09:40:21;38.10;;;13.07;;
31282;SDS011;17915;52.540;13.604;2023-09-12T09:42:49;37.45;;;12.25;;
31282;SDS011;17915;52.540;13.604;2023-09-12T09:45:18;31.13;;;11.50;;
31282;SDS011;17915;52.540;13.604;2023-09-12T09:47:44;23.37;;;9.60;;
31282;SDS011;17915;52.540;13.604;2023-09-12T09:50:13;33.30;;;10.50;;
31282;SDS011;17915;52.540;13.604;2023-09-12T09:52:39;28.77;;;10.77;;
31282;SDS011;17915;52.540;13.604;2023-09-12T09:55:06;35.15;;;10.65;;
31282;SDS011;17915;52.540;13.604;2023-09-12T09:57:36;31.42;;;10.55;;
31282;SDS011;17915;52.540;13.604;2023-09-12T10:00:02;19.85;;;10.45;;
31282;SDS011;17915;52.540;13.604;2023-09-12T10:02:33;24.17;;;10.70;;
31282;SDS011;17915;52.540;13.604;2023-09-12T10:05:00;24.08;;;10.35;;
31282;SDS011;17915;52.540;13.604;2023-09-12T10:07:30;34.33;;;11.05;;
31282;SDS011;17915;52.540;13.604;2023-09-12T10:09:58;29.20;;;10.68;;
31282;SDS011;17915;52.540;13.604;2023-09-12T10:12:29;23.10;;;10.35;;
31282;SDS011;17915;52.540;13.604;2023-09-12T10:14:57;30.15;;;10.15;;
31282;SDS011;17915;52.540;13.604;2023-09-12T10:17:23;28.10;;;11.88;;
31282;SDS011;17915;52.540;13.604;2023-09-12T10:19:54;41.00;;;12.43;;
31282;SDS011;17915;52.540;13.604;2023-09-12T10:22:21;22.38;;;11.32;;
31282;SDS011;17915;52.540;13.604;2023-09-12T10:25:10;28.50;;;12.35;;
31282;SDS011;17915;52.540;13.604;2023-09-12T10:27:36;26.63;;;11.77;;
31282;SDS011;17915;52.540;13.604;2023-09-12T10:30:02;35.72;;;12.52;;
31282;SDS011;17915;52.540;13.604;2023-09-12T10:32:29;29.17;;;12.63;;
31282;SDS011;17915;52.540;13.604;2023-09-12T10:34:57;31.17;;;12.32;;
31282;SDS011;17915;52.540;13.604;2023-09-12T10:37:23;30.27;;;12.48;;
31282;SDS011;17915;52.540;13.604;2023-09-12T10:39:51;35.55;;;12.52;;
31282;SDS011;17915;52.540;13.604;2023-09-12T10:42:18;26.80;;;13.10;;
31282;SDS011;17915;52.540;13.604;2023-09-12T10:44:45;25.20;;;12.68;;
31282;SDS011;17915;52.540;13.604;2023-09-12T10:47:11;30.80;;;13.15;;
31282;SDS011;17915;52.540;13.604;2023-09-12T10:49:37;27.25;;;12.85;;
31282;SDS011;17915;52.540;13.604;2023-09-12T10:52:03;35.17;;;12.32;;
31282;SDS011;17915;52.540;13.604;2023-09-12T10:54:35;28.08;;;12.25;;
31282;SDS011;17915;52.540;13.604;2023-09-12T10:57:09;33.88;;;12.60;;
31282;SDS011;17915;52.540;13.604;2023-09-12T11:00:23;19.77;;;11.43;;
31282;SDS011;17915;52.540;13.604;2023-09-12T11:02:41;21.17;;;12.63;;
31282;SDS011;17915;52.540;13.604;2023-09-12T11:07:55;29.88;;;11.40;;
31282;SDS011;17915;52.540;13.604;2023-09-12T11:10:21;23.70;;;10.05;;
31282;SDS011;17915;52.540;13.604;2023-09-12T11:12:49;25.75;;;12.35;;
31282;SDS011;17915;52.540;13.604;2023-09-12T11:15:16;31.40;;;11.40;;
31282;SDS011;17915;52.540;13.604;2023-09-12T11:20:11;19.83;;;10.88;;
31282;SDS011;17915;52.540;13.604;2023-09-12T11:22:40;28.73;;;11.57;;
31282;SDS011;17915;52.540;13.604;2023-09-12T11:25:16;18.35;;;10.27;;
31282;SDS011;17915;52.540;13.604;2023-09-12T11:32:45;22.05;;;11.65;;
31282;SDS011;17915;52.540;13.604;2023-09-12T11:35:11;24.17;;;10.38;;
31282;SDS011;17915;52.540;13.604;2023-09-12T11:37:38;24.75;;;10.35;;
31282;SDS011;17915;52.540;13.604;2023-09-12T11:40:23;27.95;;;10.77;;
31282;SDS011;17915;52.540;13.604;2023-09-12T11:42:52;34.95;;;11.35;;
31282;SDS011;17915;52.540;13.604;2023-09-12T11:45:18;33.05;;;10.43;;
31282;SDS011;17915;52.540;13.604;2023-09-12T11:47:45;28.60;;;10.82;;
31282;SDS011;17915;52.540;13.604;2023-09-12T11:53:03;26.45;;;10.00;;
31282;SDS011;17915;52.540;13.604;2023-09-12T11:55:33;22.52;;;10.55;;
31282;SDS011;17915;52.540;13.604;2023-09-12T11:58:00;35.97;;;10.52;;
31282;SDS011;17915;52.540;13.604;2023-09-12T12:00:26;17.25;;;9.18;;
31282;SDS011;17915;52.540;13.604;2023-09-12T12:02:53;22.45;;;10.32;;
31282;SDS011;17915;52.540;13.604;2023-09-12T12:05:19;24.85;;;11.02;;
31282;SDS011;17915;52.540;13.604;2023-09-12T12:07:44;29.63;;;10.20;;
31282;SDS011;17915;52.540;13.604;2023-09-12T12:10:12;23.55;;;9.98;;
31282;SDS011;17915;52.540;13.604;2023-09-12T12:12:38;35.08;;;10.60;;
31282;SDS011;17915;52.540;13.604;2023-09-12T12:15:04;26.23;;;10.13;;
31282;SDS011;17915;52.540;13.604;2023-09-12T12:17:34;28.60;;;10.32;;
31282;SDS011;17915;52.540;13.604;2023-09-12T12:20:00;37.03;;;11.23;;
31282;SDS011;17915;52.540;13.604;2023-09-12T12:22:25;25.35;;;9.68;;
31282;SDS011;17915;52.540;13.604;2023-09-12T12:24:51;34.55;;;10.07;;
31282;SDS011;17915;52.540;13.604;2023-09-12T12:29:42;35.97;;;10.40;;
31282;SDS011;17915;52.540;13.604;2023-09-12T12:32:09;23.60;;;9.57;;
31282;SDS011;17915;52.540;13.604;2023-09-12T12:34:35;27.80;;;11.65;;
31282;SDS011;17915;52.540;13.604;2023-09-12T12:39:26;26.23;;;10.52;;
31282;SDS011;17915;52.540;13.604;2023-09-12T12:44:18;21.35;;;8.90;;
31282;SDS011;17915;52.540;13.604;2023-09-12T12:46:48;27.92;;;10.82;;
31282;SDS011;17915;52.540;13.604;2023-09-12T12:49:17;29.88;;;10.52;;
31282;SDS011;17915;52.540;13.604;2023-09-12T12:51:43;24.77;;;10.20;;
31282;SDS011;17915;52.540;13.604;2023-09-12T12:54:10;15.07;;;8.77;;
31282;SDS011;17915;52.540;13.604;2023-09-12T12:56:35;22.77;;;9.20;;
31282;SDS011;17915;52.540;13.604;2023-09-12T12:59:01;17.77;;;9.27;;
31282;SDS011;17915;52.540;13.604;2023-09-12T13:01:28;17.73;;;9.95;;
31282;SDS011;17915;52.540;13.604;2023-09-12T13:08:48;14.50;;;9.00;;
31282;SDS011;17915;52.540;13.604;2023-09-12T13:11:14;32.17;;;9.98;;
31282;SDS011;17915;52.540;13.604;2023-09-12T13:13:40;16.95;;;9.55;;
31282;SDS011;17915;52.540;13.604;2023-09-12T13:16:07;17.20;;;9.48;;
31282;SDS011;17915;52.540;13.604;2023-09-12T13:18:37;21.50;;;9.50;;
31282;SDS011;17915;52.540;13.604;2023-09-12T13:21:03;23.38;;;9.77;;
31282;SDS011;17915;52.540;13.604;2023-09-12T13:25:56;28.60;;;10.13;;
31282;SDS011;17915;52.540;13.604;2023-09-12T13:28:22;17.25;;;8.48;;
31282;SDS011;17915;52.540;13.604;2023-09-12T13:30:54;27.30;;;9.27;;
31282;SDS011;17915;52.540;13.604;2023-09-12T13:33:20;26.60;;;10.38;;
31282;SDS011;17915;52.540;13.604;2023-09-12T13:35:49;18.85;;;8.88;;
31282;SDS011;17915;52.540;13.604;2023-09-12T13:38:15;23.27;;;8.80;;
31282;SDS011;17915;52.540;13.604;2023-09-12T13:40:42;31.30;;;10.73;;
31282;SDS011;17915;52.540;13.604;2023-09-12T13:43:09;20.42;;;9.48;;
31282;SDS011;17915;52.540;13.604;2023-09-12T13:48:00;20.85;;;9.00;;
31282;SDS011;17915;52.540;13.604;2023-09-12T13:52:54;15.90;;;8.50;;
31282;SDS011;17915;52.540;13.604;2023-09-12T13:55:20;25.63;;;9.77;;
31282;SDS011;17915;52.540;13.604;2023-09-12T14:00:12;22.52;;;9.55;;
31282;SDS011;17915;52.540;13.604;2023-09-12T14:05:02;15.57;;;8.80;;
31282;SDS011;17915;52.540;13.604;2023-09-12T14:09:53;29.43;;;11.13;;
31282;SDS011;17915;52.540;13.604;2023-09-12T14:12:22;19.23;;;9.38;;
31282;SDS011;17915;52.540;13.604;2023-09-12T14:14:47;29.92;;;10.23;;
31282;SDS011;17915;52.540;13.604;2023-09-12T14:19:38;26.55;;;9.75;;
31282;SDS011;17915;52.540;13.604;2023-09-12T14:24:29;39.03;;;9.40;;
31282;SDS011;17915;52.540;13.604;2023-09-12T14:29:20;29.97;;;9.53;;
31282;SDS011;17915;52.540;13.604;2023-09-12T14:31:45;16.48;;;8.57;;
31282;SDS011;17915;52.540;13.604;2023-09-12T14:34:15;20.25;;;9.40;;
31282;SDS011;17915;52.540;13.604;2023-09-12T14:39:07;23.25;;;8.85;;
31282;SDS011;17915;52.540;13.604;2023-09-12T14:43:57;21.50;;;8.87;;
31282;SDS011;17915;52.540;13.604;2023-09-12T14:46:23;29.92;;;9.45;;
31282;SDS011;17915;52.540;13.604;2023-09-12T14:51:14;23.83;;;8.85;;
31282;SDS011;17915;52.540;13.604;2023-09-12T14:56:09;24.95;;;10.68;;
31282;SDS011;17915;52.540;13.604;2023-09-12T14:58:35;28.77;;;9.48;;
31282;SDS011;17915;52.540;13.604;2023-09-12T15:01:00;27.77;;;8.38;;
31282;SDS011;17915;52.540;13.604;2023-09-12T15:05:51;20.52;;;8.77;;
31282;SDS011;17915;52.540;13.604;2023-09-12T15:08:16;27.10;;;8.48;;
31282;SDS011;17915;52.540;13.604;2023-09-12T15:10:42;21.45;;;9.35;;
31282;SDS011;17915;52.540;13.604;2023-09-12T15:13:07;30.23;;;9.63;;
31282;SDS011;17915;52.540;13.604;2023-09-12T15:15:33;19.03;;;9.20;;
31282;SDS011;17915;52.540;13.604;2023-09-12T15:17:58;28.07;;;7.37;;
31282;SDS011;17915;52.540;13.604;2023-09-12T15:20:25;16.25;;;5.47;;
31282;SDS011;17915;52.540;13.604;2023-09-12T15:22:51;13.38;;;4.82;;
31282;SDS011;17915;52.540;13.604;2023-09-12T15:25:17;10.30;;;4.90;;
31282;SDS011;17915;52.540;13.604;2023-09-12T15:27:42;15.82;;;4.70;;
31282;SDS011;17915;52.540;13.604;2023-09-12T15:30:07;6.95;;;4.80;;
31282;SDS011;17915;52.540;13.604;2023-09-12T15:32:33;15.10;;;4.82;;
31282;SDS011;17915;52.540;13.604;2023-09-12T15:34:58;13.57;;;5.40;;
31282;SDS011;17915;52.540;13.604;2023-09-12T15:37:24;9.90;;;4.43;;
31282;SDS011;17915;52.540;13.604;2023-09-12T15:39:49;18.17;;;5.47;;
31282;SDS011;17915;52.540;13.604;2023-09-12T15:42:15;10.27;;;5.07;;
31282;SDS011;17915;52.540;13.604;2023-09-12T15:44:41;7.80;;;4.90;;
31282;SDS011;17915;52.540;13.604;2023-09-12T15:47:09;10.93;;;4.77;;
31282;SDS011;17915;52.540;13.604;2023-09-12T15:49:34;10.35;;;5.50;;
31282;SDS011;17915;52.540;13.604;2023-09-12T15:52:00;5.80;;;5.30;;
31282;SDS011;17915;52.540;13.604;2023-09-12T15:54:25;7.57;;;5.20;;
31282;SDS011;17915;52.540;13.604;2023-09-12T15:56:52;16.92;;;5.28;;
31282;SDS011;17915;52.540;13.604;2023-09-12T15:59:18;16.43;;;5.20;;
31282;SDS011;17915;52.540;13.604;2023-09-12T16:01:43;5.50;;;5.13;;
31282;SDS011;17915;52.540;13.604;2023-09-12T16:04:08;6.27;;;5.10;;
31282;SDS011;17915;52.540;13.604;2023-09-12T16:06:34;5.33;;;4.93;;
31282;SDS011;17915;52.540;13.604;2023-09-12T16:08:59;6.13;;;4.90;;
31282;SDS011;17915;52.540;13.604;2023-09-12T16:11:24;5.17;;;4.83;;
31282;SDS011;17915;52.540;13.604;2023-09-12T16:13:50;25.20;;;8.40;;
31282;SDS011;17915;52.540;13.604;2023-09-12T16:16:15;7.60;;;5.37;;
31282;SDS011;17915;52.540;13.604;2023-09-12T16:18:41;22.97;;;9.83;;
31282;SDS011;17915;52.540;13.604;2023-09-12T16:21:07;11.40;;;5.83;;
31282;SDS011;17915;52.540;13.604;2023-09-12T16:23:33;13.65;;;9.15;;
31282;SDS011;17915;52.540;13.604;2023-09-12T16:25:59;5.73;;;5.17;;
31282;SDS011;17915;52.540;13.604;2023-09-12T16:28:25;5.60;;;5.15;;
31282;SDS011;17915;52.540;13.604;2023-09-12T16:30:50;4.68;;;4.38;;
31282;SDS011;17915;52.540;13.604;2023-09-12T16:33:16;5.70;;;5.20;;
31282;SDS011;17915;52.540;13.604;2023-09-12T16:35:41;5.37;;;4.87;;
31282;SDS011;17915;52.540;13.604;2023-09-12T16:38:07;8.40;;;4.73;;
31282;SDS011;17915;52.540;13.604;2023-09-12T16:40:32;11.40;;;5.43;;
31282;SDS011;17915;52.540;13.604;2023-09-12T16:42:57;5.87;;;5.23;;
31282;SDS011;17915;52.540;13.604;2023-09-12T16:45:23;7.33;;;4.37;;
31282;SDS011;17915;52.540;13.604;2023-09-12T16:47:48;8.87;;;5.43;;
31282;SDS011;17915;52.540;13.604;2023-09-12T16:50:14;5.27;;;4.77;;
31282;SDS011;17915;52.540;13.604;2023-09-12T16:55:05;6.05;;;4.60;;
31282;SDS011;17915;52.540;13.604;2023-09-12T16:57:31;6.65;;;4.88;;
31282;SDS011;17915;52.540;13.604;2023-09-12T16:59:56;9.97;;;4.57;;
31282;SDS011;17915;52.540;13.604;2023-09-12T17:02:22;6.87;;;4.37;;
31282;SDS011;17915;52.540;13.604;2023-09-12T17:04:48;9.50;;;4.63;;
31282;SDS011;17915;52.540;13.604;2023-09-12T17:07:13;5.07;;;4.67;;
31282;SDS011;17915;52.540;13.604;2023-09-12T17:09:39;5.77;;;5.27;;
31282;SDS011;17915;52.540;13.604;2023-09-12T17:12:05;10.40;;;4.40;;
31282;SDS011;17915;52.540;13.604;2023-09-12T17:14:32;5.13;;;4.70;;
31282;SDS011;17915;52.540;13.604;2023-09-12T17:16:57;6.03;;;5.45;;
31282;SDS011;17915;52.540;13.604;2023-09-12T17:19:23;4.13;;;3.83;;
31282;SDS011;17915;52.540;13.604;2023-09-12T17:21:48;11.60;;;6.47;;
31282;SDS011;17915;52.540;13.604;2023-09-12T17:24:13;5.50;;;5.07;;
31282;SDS011;17915;52.540;13.604;2023-09-12T17:26:39;5.30;;;4.83;;
31282;SDS011;17915;52.540;13.604;2023-09-12T17:29:04;9.63;;;5.07;;
31282;SDS011;17915;52.540;13.604;2023-09-12T17:31:30;7.67;;;4.57;;
31282;SDS011;17915;52.540;13.604;2023-09-12T17:33:55;5.53;;;4.27;;
31282;SDS011;17915;52.540;13.604;2023-09-12T17:36:20;7.53;;;5.60;;
31282;SDS011;17915;52.540;13.604;2023-09-12T17:38:46;7.90;;;4.83;;
31282;SDS011;17915;52.540;13.604;2023-09-12T17:43:38;4.38;;;4.18;;
31282;SDS011;17915;52.540;13.604;2023-09-12T17:46:04;8.07;;;4.05;;
31282;SDS011;17915;52.540;13.604;2023-09-12T17:48:29;4.97;;;4.27;;
31282;SDS011;17915;52.540;13.604;2023-09-12T17:50:54;4.80;;;4.43;;
31282;SDS011;17915;52.540;13.604;2023-09-12T17:53:20;7.10;;;4.47;;
31282;SDS011;17915;52.540;13.604;2023-09-12T17:55:47;4.45;;;4.18;;
31282;SDS011;17915;52.540;13.604;2023-09-12T17:58:14;4.75;;;4.45;;
31282;SDS011;17915;52.540;13.604;2023-09-12T18:00:40;12.80;;;4.13;;
31282;SDS011;17915;52.540;13.604;2023-09-12T18:03:05;4.27;;;3.87;;
31282;SDS011;17915;52.540;13.604;2023-09-12T18:05:31;9.00;;;4.17;;
31282;SDS011;17915;52.540;13.604;2023-09-12T18:07:56;7.10;;;4.30;;
31282;SDS011;17915;52.540;13.604;2023-09-12T18:10:23;5.80;;;3.95;;
31282;SDS011;17915;52.540;13.604;2023-09-12T18:12:51;4.20;;;3.90;;
31282;SDS011;17915;52.540;13.604;2023-09-12T18:15:16;10.73;;;4.47;;
31282;SDS011;17915;52.540;13.604;2023-09-12T18:17:42;3.60;;;3.20;;
31282;SDS011;17915;52.540;13.604;2023-09-12T18:20:08;11.13;;;4.10;;
31282;SDS011;17915;52.540;13.604;2023-09-12T18:22:34;5.63;;;4.05;;
31282;SDS011;17915;52.540;13.604;2023-09-12T18:25:00;7.68;;;4.00;;
31282;SDS011;17915;52.540;13.604;2023-09-12T18:27:25;6.13;;;5.07;;
31282;SDS011;17915;52.540;13.604;2023-09-12T18:29:51;4.70;;;4.05;;
31282;SDS011;17915;52.540;13.604;2023-09-12T18:32:17;4.70;;;3.90;;
31282;SDS011;17915;52.540;13.604;2023-09-12T18:34:42;3.93;;;3.77;;
31282;SDS011;17915;52.540;13.604;2023-09-12T18:37:07;9.03;;;4.10;;
31282;SDS011;17915;52.540;13.604;2023-09-12T18:39:34;6.47;;;4.50;;
31282;SDS011;17915;52.540;13.604;2023-09-12T18:41:59;5.63;;;3.72;;
31282;SDS011;17915;52.540;13.604;2023-09-12T18:44:25;4.60;;;4.20;;
31282;SDS011;17915;52.540;13.604;2023-09-12T18:46:50;11.43;;;3.63;;
31282;SDS011;17915;52.540;13.604;2023-09-12T18:49:16;3.92;;;3.72;;
31282;SDS011;17915;52.540;13.604;2023-09-12T18:51:41;4.17;;;3.77;;
31282;SDS011;17915;52.540;13.604;2023-09-12T18:54:07;5.27;;;4.07;;
31282;SDS011;17915;52.540;13.604;2023-09-12T18:56:38;4.15;;;3.85;;
31282;SDS011;17915;52.540;13.604;2023-09-12T18:59:04;5.47;;;3.80;;
31282;SDS011;17915;52.540;13.604;2023-09-12T19:01:29;4.83;;;4.50;;
31282;SDS011;17915;52.540;13.604;2023-09-12T19:03:55;5.10;;;4.00;;
31282;SDS011;17915;52.540;13.604;2023-09-12T19:06:20;6.50;;;3.67;;
31282;SDS011;17915;52.540;13.604;2023-09-12T19:08:45;5.10;;;4.67;;
31282;SDS011;17915;52.540;13.604;2023-09-12T19:11:11;4.10;;;3.80;;
31282;SDS011;17915;52.540;13.604;2023-09-12T19:13:37;6.13;;;4.40;;
31282;SDS011;17915;52.540;13.604;2023-09-12T19:16:03;6.35;;;4.55;;
31282;SDS011;17915;52.540;13.604;2023-09-12T19:18:29;5.95;;;3.92;;
31282;SDS011;17915;52.540;13.604;2023-09-12T19:20:55;10.75;;;4.68;;
31282;SDS011;17915;52.540;13.604;2023-09-12T19:23:20;4.93;;;4.53;;
31282;SDS011;17915;52.540;13.604;2023-09-12T19:25:45;11.70;;;5.00;;
31282;SDS011;17915;52.540;13.604;2023-09-12T19:28:14;7.00;;;4.70;;
31282;SDS011;17915;52.540;13.604;2023-09-12T19:30:40;4.68;;;4.28;;
31282;SDS011;17915;52.540;13.604;2023-09-12T19:33:05;10.67;;;4.60;;
31282;SDS011;17915;52.540;13.604;2023-09-12T19:35:34;4.22;;;3.80;;
31282;SDS011;17915;52.540;13.604;2023-09-12T19:38:00;4.57;;;4.10;;
31282;SDS011;17915;52.540;13.604;2023-09-12T19:40:27;3.92;;;3.70;;
31282;SDS011;17915;52.540;13.604;2023-09-12T19:45:18;7.18;;;4.53;;
31282;SDS011;17915;52.540;13.604;2023-09-12T19:47:44;5.53;;;4.20;;
31282;SDS011;17915;52.540;13.604;2023-09-12T19:50:09;4.97;;;4.50;;
31282;SDS011;17915;52.540;13.604;2023-09-12T19:52:34;7.13;;;4.67;;
31282;SDS011;17915;52.540;13.604;2023-09-12T19:55:00;4.17;;;3.77;;
31282;SDS011;17915;52.540;13.604;2023-09-12T19:57:25;4.43;;;4.17;;
31282;SDS011;17915;52.540;13.604;2023-09-12T19:59:51;11.03;;;4.47;;
31282;SDS011;17915;52.540;13.604;2023-09-12T20:02:16;10.70;;;4.83;;
31282;SDS011;17915;52.540;13.604;2023-09-12T20:04:42;5.47;;;3.80;;
31282;SDS011;17915;52.540;13.604;2023-09-12T20:07:08;4.67;;;4.27;;
31282;SDS011;17915;52.540;13.604;2023-09-12T20:09:33;4.77;;;4.37;;
31282;SDS011;17915;52.540;13.604;2023-09-12T20:11:58;5.00;;;4.43;;
31282;SDS011;17915;52.540;13.604;2023-09-12T20:14:24;5.73;;;4.83;;
31282;SDS011;17915;52.540;13.604;2023-09-12T20:16:49;5.40;;;4.65;;
31282;SDS011;17915;52.540;13.604;2023-09-12T20:19:15;8.13;;;4.63;;
31282;SDS011;17915;52.540;13.604;2023-09-12T20:21:40;5.72;;;5.20;;
31282;SDS011;17915;52.540;13.604;2023-09-12T20:24:06;6.03;;;5.43;;
31282;SDS011;17915;52.540;13.604;2023-09-12T20:26:32;7.15;;;5.07;;
31282;SDS011;17915;52.540;13.604;2023-09-12T20:28:58;4.82;;;4.50;;
31282;SDS011;17915;52.540;13.604;2023-09-12T20:31:23;7.17;;;4.83;;